KSAF/SAF METAR and TAF weather

Enter ICAO airport designator
Station Type Date Time Source
KSAF METAR 2022/08/12 14:53 UTC NOAA

KSAF 121453Z 02006KT 10SM CLR 21/13 A3039 RMK AO2 SLP195 T02110128 53005


Station Type Date Time Source
KSAF Decoded METAR 2022/08/12 14:53 UTC NOAA

SANTA FE COUNTY MUNICIPAL, NM, United States (KSAF) 35-37N 106-05W 1930M
Aug 12, 2022 - 10:53 AM EDT / 2022.08.12 1453 UTC
Wind: from the NNE (020 degrees) at 7 MPH (6 KT):0
Visibility: 10 mile(s):0
Sky conditions: clear
Temperature: 70.0 F (21.1 C)
Dew Point: 55.0 F (12.8 C)
Relative Humidity: 59%
Pressure (altimeter): 30.39 in. Hg (1029 hPa)
Pressure tendency: 0.01 inches (0.5 hPa) higher than three hours ago
ob: KSAF 121453Z 02006KT 10SM CLR 21/13 A3039 RMK AO2 SLP195 T02110128 53005
cycle: 15

Station Type Date Time Source
KSAF TAF 2022/08/12 12:36 UTC NOAA

TAF KSAF 121133Z 1212/1312 01008KT P6SM FEW070 FEW250
FM121800 17009KT P6SM FEW090 SCT140
FM130100 15010KT P6SM FEW090 SCT140
FM130600 VRB06KT P6SM FEW090

Example: see airport list